Time;durP1;ratioP1;P1;durP2;ratioP2;P2;SDS_P1;SDS_P2;PMS_P1;PMS_P2;Temp;Humidity;BMP_temperature;BMP_pressure;BME280_temperature;BME280_humidity;BME280_pressure;Samples;Min_cycle;Max_cycle;Signal;HPM_P1;HPM_P2
2023/04/29 00:00:24;;;;;;;6.67;4.60;;;;;;;8.05;100.00;101506.69;2080709;28;20261;-64
2023/04/29 00:01:25;;;;;;;5.93;3.90;;;;;;;8.05;100.00;101504.72;2080606;28;20189;-63
2023/04/29 00:02:27;;;;;;;8.93;4.70;;;;;;;8.04;100.00;101500.38;2080685;28;20555;-63
2023/04/29 00:03:29;;;;;;;7.20;4.10;;;;;;;7.98;100.00;101506.66;2079058;28;20189;-64
2023/04/29 00:04:29;;;;;;;7.28;4.30;;;;;;;8.05;100.00;101514.97;2079838;28;20558;-63
2023/04/29 00:05:30;;;;;;;7.40;4.57;;;;;;;8.05;100.00;101510.22;2073271;28;20185;-64
2023/04/29 00:06:30;;;;;;;8.63;4.53;;;;;;;8.03;100.00;101514.56;2081009;28;20189;-64
2023/04/29 00:07:33;;;;;;;9.07;4.97;;;;;;;8.05;100.00;101512.22;2075557;28;20205;-64
2023/04/29 00:08:34;;;;;;;10.45;5.20;;;;;;;8.00;100.00;101518.13;2079312;28;20271;-64
2023/04/29 00:09:35;;;;;;;8.63;5.10;;;;;;;7.56;100.00;101443.97;2080829;28;20188;-64
2023/04/29 00:10:35;;;;;;;8.03;5.27;;;;;;;7.94;100.00;101511.41;2080701;28;20655;-63
2023/04/29 00:11:35;;;;;;;8.87;4.53;;;;;;;7.95;100.00;101527.56;2080688;28;20219;-64
2023/04/29 00:12:36;;;;;;;8.90;4.60;;;;;;;7.95;100.00;101504.72;2080644;28;20179;-64
2023/04/29 00:13:39;;;;;;;7.07;4.97;;;;;;;7.75;100.00;101465.66;2080290;28;20173;-63
2023/04/29 00:14:42;;;;;;;6.82;4.75;;;;;;;7.99;100.00;101500.00;2080547;28;20181;-64
2023/04/29 00:15:42;;;;;;;7.85;4.60;;;;;;;8.00;100.00;101490.53;2080852;28;20216;-63
2023/04/29 00:16:43;;;;;;;7.27;4.57;;;;;;;7.96;100.00;101481.44;2075566;28;20647;-63
2023/04/29 00:17:44;;;;;;;8.67;4.43;;;;;;;7.99;100.00;101492.47;2078152;28;20229;-63
2023/04/29 00:18:44;;;;;;;7.45;4.63;;;;;;;7.99;100.00;101498.00;2080754;28;20195;-63
2023/04/29 00:19:45;;;;;;;8.80;4.20;;;;;;;7.98;100.00;101493.66;2078540;28;20182;-63
2023/04/29 00:20:45;;;;;;;9.30;5.10;;;;;;;7.97;100.00;101494.06;2080620;28;20314;-63
2023/04/29 00:21:45;;;;;;;6.27;4.80;;;;;;;7.55;100.00;101439.66;2080529;28;20235;-64
2023/04/29 00:22:46;;;;;;;7.30;4.90;;;;;;;7.88;100.00;101501.94;2080090;28;20204;-63
2023/04/29 00:23:46;;;;;;;6.47;3.97;;;;;;;7.90;100.00;101497.59;2080033;28;20172;-64
2023/04/29 00:24:47;;;;;;;6.37;3.77;;;;;;;7.11;100.00;101373.00;2080130;28;20658;-63
2023/04/29 00:25:47;;;;;;;5.93;3.67;;;;;;;7.90;100.00;101494.06;2080458;28;20189;-63
2023/04/29 00:26:48;;;;;;;5.70;3.80;;;;;;;7.90;100.00;101500.34;2080540;28;20662;-63
2023/04/29 00:27:48;;;;;;;5.27;3.83;;;;;;;7.83;100.00;101488.53;2079724;28;20759;-63
2023/04/29 00:28:48;;;;;;;6.50;3.70;;;;;;;7.91;100.00;101495.63;2080565;28;20203;-63
2023/04/29 00:29:49;;;;;;;7.27;3.93;;;;;;;7.90;100.00;101497.59;2080655;28;20322;-63
2023/04/29 00:30:50;;;;;;;11.33;4.47;;;;;;;7.89;100.00;101503.53;2080386;28;20329;-63
2023/04/29 00:31:50;;;;;;;5.33;3.57;;;;;;;7.44;100.00;101433.28;2075213;28;20267;-63
2023/04/29 00:32:50;;;;;;;8.77;3.67;;;;;;;7.53;100.00;101441.97;2079893;28;20627;-64
2023/04/29 00:33:51;;;;;;;9.50;4.20;;;;;;;7.90;100.00;101505.88;2080697;28;20188;-63
2023/04/29 00:34:51;;;;;;;8.83;4.10;;;;;;;7.89;100.00;101490.50;2080532;28;20272;-63
2023/04/29 00:35:52;;;;;;;9.73;3.80;;;;;;;7.88;100.00;101494.44;2079763;28;20193;-63
2023/04/29 00:36:52;;;;;;;7.60;4.10;;;;;;;7.92;100.00;101491.69;2076397;28;20181;-64
2023/04/29 00:37:53;;;;;;;6.27;4.07;;;;;;;7.92;100.00;101486.16;2073424;28;20181;-63
2023/04/29 00:38:53;;;;;;;8.70;3.70;;;;;;;7.88;100.00;101482.59;2080631;28;20173;-64
2023/04/29 00:39:54;;;;;;;6.30;3.90;;;;;;;7.37;100.00;101391.13;2080231;28;20189;-64
2023/04/29 00:40:54;;;;;;;4.73;3.40;;;;;;;8.00;100.00;101485.00;2080633;28;20197;-64
2023/04/29 00:41:55;;;;;;;8.10;3.80;;;;;;;8.03;100.00;101482.25;2080634;28;20189;-64
2023/04/29 00:42:56;;;;;;;10.13;4.00;;;;;;;7.83;100.00;101442.41;2079950;28;20204;-64
2023/04/29 00:43:56;;;;;;;6.13;3.50;;;;;;;8.08;100.00;101481.03;2080226;28;20213;-64
2023/04/29 00:44:57;;;;;;;6.57;3.80;;;;;;;7.47;100.00;101387.59;2080390;28;20321;-63
2023/04/29 00:45:58;;;;;;;5.93;3.92;;;;;;;8.12;100.00;101477.13;2080220;28;20181;-63
2023/04/29 00:46:59;;;;;;;7.73;3.70;;;;;;;8.14;100.00;101479.47;2080192;28;20268;-63
2023/04/29 00:47:59;;;;;;;8.15;3.90;;;;;;;6.83;100.00;101272.94;2079719;28;20752;-63
2023/04/29 00:49:00;;;;;;;8.60;3.63;;;;;;;7.24;100.00;101345.84;2080690;28;20614;-64
2023/04/29 00:50:01;;;;;;;7.10;3.60;;;;;;;8.10;100.00;101475.94;2080560;28;20665;-63
2023/04/29 00:51:02;;;;;;;5.53;3.90;;;;;;;7.89;100.00;101449.09;2080514;28;20559;-64
2023/04/29 00:52:03;;;;;;;7.78;3.90;;;;;;;8.06;100.00;101472.38;2079676;28;20220;-63
2023/04/29 00:53:03;;;;;;;11.00;4.30;;;;;;;8.09;100.00;101469.63;2079595;28;20188;-64
2023/04/29 00:54:04;;;;;;;8.57;3.80;;;;;;;7.96;100.00;101442.81;2080504;28;20674;-64
2023/04/29 00:55:07;;;;;;;8.37;4.20;;;;;;;8.06;100.00;101470.41;2079667;28;20186;-63
2023/04/29 00:56:09;;;;;;;9.07;4.10;;;;;;;7.85;100.00;101462.09;2072831;28;20426;-63
2023/04/29 00:57:09;;;;;;;7.03;3.97;;;;;;;7.94;100.00;101454.22;2080503;28;20668;-63
2023/04/29 00:58:11;;;;;;;7.20;3.97;;;;;;;8.03;100.00;101473.97;2080065;28;20929;-63
2023/04/29 00:59:11;;;;;;;8.80;4.50;;;;;;;8.08;100.00;101475.53;2080427;28;20189;-64
2023/04/29 01:00:13;;;;;;;8.77;3.90;;;;;;;8.10;100.00;101479.47;2080432;28;20203;-63
2023/04/29 01:01:13;;;;;;;9.30;3.92;;;;;;;8.12;100.00;101479.06;2080470;28;20359;-63
2023/04/29 01:02:14;;;;;;;13.77;4.27;;;;;;;8.07;100.00;101477.50;2076693;28;20200;-64
2023/04/29 01:03:15;;;;;;;7.27;3.80;;;;;;;7.51;100.00;101416.78;2079800;28;20303;-63
2023/04/29 01:04:16;;;;;;;15.37;4.77;;;;;;;7.97;100.00;101485.78;2080365;28;20200;-63
2023/04/29 01:05:16;;;;;;;15.83;5.30;;;;;;;8.05;100.00;101495.66;2080698;28;20235;-63
2023/04/29 01:06:34;;;;;;;17.97;4.70;;;;;;;8.15;100.00;101487.34;2080401;28;20230;-63
2023/04/29 01:08:11;;;;;;;10.80;4.78;;;;;;;8.20;100.00;101494.50;2076197;28;20166;-64
2023/04/29 01:09:27;;;;;;;9.50;4.00;;;;;;;8.24;100.00;101489.75;2077742;28;20652;-64
2023/04/29 01:10:31;;;;;;;10.83;4.60;;;;;;;8.06;100.00;101462.13;2076971;28;20226;-64
2023/04/29 01:11:41;;;;;;;12.20;4.15;;;;;;;8.16;100.00;101482.63;2079809;28;20923;-64
2023/04/29 01:12:49;;;;;;;8.88;4.18;;;;;;;8.21;100.00;101490.53;2078863;28;20664;-64
2023/04/29 01:13:54;;;;;;;7.63;3.50;;;;;;;8.26;100.00;101481.88;2080423;28;20260;-64
2023/04/29 01:15:11;;;;;;;7.53;3.78;;;;;;;8.17;100.00;101456.59;2080549;28;20191;-64
2023/04/29 01:16:28;;;;;;;10.00;4.10;;;;;;;8.35;100.00;101480.28;2080362;28;20677;-63
2023/04/29 01:17:36;;;;;;;13.45;4.45;;;;;;;8.38;100.00;101475.94;2079986;28;20567;-64
2023/04/29 01:18:42;;;;;;;11.88;4.57;;;;;;;8.00;100.00;101411.25;2080461;28;20232;-64
2023/04/29 01:19:49;;;;;;;11.73;4.30;;;;;;;8.38;100.00;101476.72;2080509;28;20682;-64
2023/04/29 01:20:50;;;;;;;9.57;4.10;;;;;;;8.35;100.00;101466.47;2080310;28;20183;-63
2023/04/29 01:21:50;;;;;;;7.55;3.90;;;;;;;8.44;100.00;101480.66;2080286;28;20289;-64
2023/04/29 01:22:51;;;;;;;13.07;3.90;;;;;;;8.04;100.00;101422.31;2080122;28;20195;-63
2023/04/29 01:23:54;;;;;;;10.97;3.90;;;;;;;8.45;100.00;101495.28;2079289;28;20176;-64
2023/04/29 01:24:55;;;;;;;6.75;3.72;;;;;;;8.38;100.00;101493.31;2072953;28;20667;-63
2023/04/29 01:25:56;;;;;;;8.17;4.13;;;;;;;7.83;100.00;101433.34;2080461;28;20613;-63
2023/04/29 01:27:09;;;;;;;6.57;3.85;;;;;;;8.04;100.00;101491.31;2080169;28;20261;-63
2023/04/29 01:28:46;;;;;;;7.65;3.42;;;;;;;8.07;100.00;101496.03;2071717;28;20227;-64
2023/04/29 01:30:01;;;;;;;6.47;3.80;;;;;;;7.98;100.00;101495.63;2074749;28;20278;-64
2023/04/29 01:31:11;;;;;;;5.30;3.45;;;;;;;7.97;100.00;101496.81;2079944;28;20666;-64
2023/04/29 01:32:43;;;;;;;7.63;4.05;;;;;;;7.91;100.00;101465.28;2075531;28;20276;-64
2023/04/29 01:34:09;;;;;;;6.00;3.60;;;;;;;8.02;100.00;101477.91;2062193;28;20235;-63
2023/04/29 01:35:25;;;;;;;5.53;3.45;;;;;;;8.01;100.00;101479.09;2080406;28;20669;-64
2023/04/29 01:36:40;;;;;;;6.53;3.72;;;;;;;8.03;100.00;101476.72;2081954;28;20170;-64
2023/04/29 01:37:59;;;;;;;5.15;3.80;;;;;;;8.07;100.00;101479.47;2082588;28;20176;-63
2023/04/29 01:39:07;;;;;;;8.13;4.00;;;;;;;8.07;100.00;101480.28;2087210;28;20669;-64
2023/04/29 01:40:32;;;;;;;7.28;4.15;;;;;;;8.04;100.00;101483.03;2081776;28;27124;-63
2023/04/29 01:41:56;;;;;;;11.45;4.93;;;;;;;8.06;100.00;101480.66;2077729;28;20195;-63
2023/04/29 01:43:02;;;;;;;7.95;4.25;;;;;;;8.06;100.00;101488.94;2073527;28;20260;-63
2023/04/29 01:44:04;;;;;;;6.63;4.00;;;;;;;7.32;100.00;101366.69;2080287;28;20237;-64
2023/04/29 01:45:09;;;;;;;8.25;4.25;;;;;;;8.07;100.00;101483.03;2082040;28;20208;-64
2023/04/29 01:46:11;;;;;;;6.90;3.97;;;;;;;8.05;100.00;101488.13;2081926;28;20659;-64
2023/04/29 01:47:13;;;;;;;5.60;3.58;;;;;;;8.02;100.00;101482.63;2081475;28;20202;-63
2023/04/29 01:48:14;;;;;;;6.55;4.03;;;;;;;8.01;100.00;101490.13;2081221;28;20222;-63
2023/04/29 01:49:14;;;;;;;6.23;3.97;;;;;;;8.03;100.00;101495.25;2081941;28;20223;-63
2023/04/29 01:50:15;;;;;;;7.10;3.90;;;;;;;7.30;100.00;101385.63;2081790;28;20465;-63
2023/04/29 01:51:15;;;;;;;6.13;3.87;;;;;;;7.74;100.00;101461.31;2082067;28;20245;-64
2023/04/29 01:52:16;;;;;;;6.10;4.17;;;;;;;8.04;100.00;101503.13;2081763;28;20200;-64
2023/04/29 01:53:16;;;;;;;7.00;4.23;;;;;;;8.08;100.00;101501.16;2081378;28;20193;-63
2023/04/29 01:54:17;;;;;;;6.90;4.30;;;;;;;7.97;100.00;101480.25;2081952;28;20227;-64
2023/04/29 01:55:17;;;;;;;6.10;4.17;;;;;;;8.09;100.00;101493.69;2079326;28;20663;-63
2023/04/29 01:56:18;;;;;;;8.03;4.03;;;;;;;8.09;100.00;101499.22;2076857;28;20219;-63
2023/04/29 01:57:18;;;;;;;7.70;4.30;;;;;;;8.04;100.00;101494.84;2081323;28;20678;-64
2023/04/29 01:58:19;;;;;;;6.37;4.40;;;;;;;8.04;100.00;101492.09;2080595;28;20732;-63
2023/04/29 01:59:20;;;;;;;7.07;4.17;;;;;;;6.77;100.00;101327.63;2073731;28;20201;-64
2023/04/29 02:00:20;;;;;;;10.43;4.00;;;;;;;7.90;100.00;101500.34;2081663;28;20253;-63
2023/04/29 02:01:21;;;;;;;7.67;4.20;;;;;;;7.86;100.00;101504.31;2081919;28;20213;-64
2023/04/29 02:02:22;;;;;;;10.93;4.40;;;;;;;7.33;100.00;101429.72;2077168;28;20214;-64
2023/04/29 02:03:22;;;;;;;10.13;4.80;;;;;;;7.75;100.00;101507.03;2077713;28;20181;-64
2023/04/29 02:04:24;;;;;;;10.83;4.30;;;;;;;7.71;100.00;101506.25;2081796;28;20317;-64
2023/04/29 02:05:24;;;;;;;8.10;4.75;;;;;;;7.68;100.00;101504.28;2079378;28;20175;-65
2023/04/29 02:06:25;;;;;;;8.83;4.20;;;;;;;7.66;100.00;101503.88;2074041;28;20193;-64
2023/04/29 02:07:26;;;;;;;8.40;4.10;;;;;;;7.62;100.00;101514.13;2078955;28;20580;-63
2023/04/29 02:08:26;;;;;;;9.17;4.80;;;;;;;7.65;100.00;101515.31;2081418;28;20208;-64
2023/04/29 02:09:27;;;;;;;9.07;4.17;;;;;;;7.65;100.00;101512.56;2081826;28;20531;-64
2023/04/29 02:10:28;;;;;;;8.87;4.10;;;;;;;7.57;100.00;101483.34;2081745;28;20177;-63
2023/04/29 02:11:28;;;;;;;8.00;4.63;;;;;;;7.68;100.00;101509.78;2081414;28;20200;-64
2023/04/29 02:12:28;;;;;;;5.87;3.90;;;;;;;7.63;100.00;101492.84;2079819;28;20184;-64
2023/04/29 02:13:29;;;;;;;5.77;4.10;;;;;;;7.70;100.00;101503.88;2078836;28;20277;-63
2023/04/29 02:14:30;;;;;;;6.60;3.67;;;;;;;7.73;100.00;101494.81;2081694;28;20190;-64
2023/04/29 02:15:30;;;;;;;6.20;4.10;;;;;;;7.75;100.00;101500.75;2081519;28;20184;-63
2023/04/29 02:16:31;;;;;;;7.13;3.90;;;;;;;7.75;100.00;101489.72;2081708;28;20181;-63
2023/04/29 02:17:33;;;;;;;10.87;4.60;;;;;;;7.58;100.00;101471.16;2073435;28;20188;-63
2023/04/29 02:18:33;;;;;;;5.95;3.90;;;;;;;7.78;100.00;101484.19;2079783;28;20192;-64
2023/04/29 02:19:34;;;;;;;7.40;4.37;;;;;;;7.82;100.00;101487.75;2080642;28;20221;-64
2023/04/29 02:20:34;;;;;;;10.93;4.43;;;;;;;7.88;100.00;101485.38;2076851;28;20200;-64
2023/04/29 02:21:35;;;;;;;8.43;4.20;;;;;;;7.90;100.00;101486.56;2076561;28;20215;-64
2023/04/29 02:22:35;;;;;;;7.00;4.40;;;;;;;7.91;100.00;101479.88;2077638;28;20684;-64
2023/04/29 02:23:36;;;;;;;8.47;4.40;;;;;;;7.95;100.00;101485.41;2080785;28;20182;-63
2023/04/29 02:24:37;;;;;;;7.13;4.00;;;;;;;7.95;100.00;101494.44;2081600;28;20217;-64
2023/04/29 02:25:37;;;;;;;6.87;4.00;;;;;;;7.98;100.00;101498.38;2081794;28;20217;-64
2023/04/29 02:26:38;;;;;;;7.17;3.97;;;;;;;8.04;100.00;101491.31;2081513;28;20272;-64
2023/04/29 02:27:38;;;;;;;9.50;4.20;;;;;;;8.06;100.00;101489.75;2080512;28;20669;-64
2023/04/29 02:28:38;;;;;;;9.40;4.23;;;;;;;7.67;100.00;101433.72;2081578;28;20648;-64
2023/04/29 02:29:39;;;;;;;6.27;3.80;;;;;;;8.08;100.00;101490.13;2080857;28;20192;-64
2023/04/29 02:30:39;;;;;;;8.03;4.07;;;;;;;8.11;100.00;101496.81;2080996;28;20207;-64
2023/04/29 02:31:39;;;;;;;6.07;3.87;;;;;;;8.09;100.00;101491.69;2081249;28;20670;-64
2023/04/29 02:32:40;;;;;;;7.23;3.97;;;;;;;8.10;100.00;101498.03;2081558;28;20192;-63
2023/04/29 02:33:40;;;;;;;10.83;4.60;;;;;;;8.07;100.00;101502.34;2080981;28;20202;-64
2023/04/29 02:34:41;;;;;;;11.90;4.27;;;;;;;8.03;100.00;101504.31;2080847;28;20203;-64
2023/04/29 02:35:41;;;;;;;8.73;4.03;;;;;;;7.99;100.00;101511.81;2080907;28;20290;-64
2023/04/29 02:36:41;;;;;;;8.53;4.07;;;;;;;7.46;100.00;101447.50;2081552;28;20231;-64
2023/04/29 02:37:42;;;;;;;6.50;3.80;;;;;;;7.91;100.00;101515.75;2078074;28;20195;-64
2023/04/29 02:38:43;;;;;;;6.73;4.07;;;;;;;7.90;100.00;101514.16;2081258;28;20179;-63
2023/04/29 02:39:43;;;;;;;5.93;3.67;;;;;;;7.89;100.00;101520.84;2081442;28;20185;-64
2023/04/29 02:40:44;;;;;;;6.30;4.10;;;;;;;7.48;100.00;101452.63;2081668;28;20178;-64
2023/04/29 02:41:45;;;;;;;7.50;4.00;;;;;;;7.97;100.00;101539.03;2081408;28;20674;-64
2023/04/29 02:42:45;;;;;;;6.33;3.93;;;;;;;7.83;100.00;101516.13;2080971;28;20631;-64
2023/04/29 02:43:47;;;;;;;9.20;3.97;;;;;;;7.92;100.00;101546.88;2080843;28;20194;-64
2023/04/29 02:44:48;;;;;;;5.93;3.80;;;;;;;7.87;100.00;101548.06;2081357;28;20217;-64
2023/04/29 02:45:49;;;;;;;5.63;4.07;;;;;;;7.86;100.00;101537.41;2078481;28;20208;-63
2023/04/29 02:46:49;;;;;;;5.10;3.63;;;;;;;7.96;100.00;101545.72;2081330;28;20208;-64
2023/04/29 02:47:49;;;;;;;5.53;3.97;;;;;;;7.98;100.00;101548.88;2079446;28;20235;-64
2023/04/29 02:48:50;;;;;;;6.93;3.70;;;;;;;7.97;100.00;101582.38;2081712;28;20193;-64
2023/04/29 02:49:50;;;;;;;6.40;3.70;;;;;;;7.97;100.00;101546.50;2081690;28;20208;-64
2023/04/29 02:50:51;;;;;;;4.43;3.57;;;;;;;7.93;100.00;101538.22;2081309;28;20700;-63
2023/04/29 02:51:52;;;;;;;5.33;3.70;;;;;;;7.84;100.00;101539.78;2081249;28;20200;-64
2023/04/29 02:52:52;;;;;;;8.20;4.40;;;;;;;7.70;100.00;101540.53;2080325;28;20664;-64
2023/04/29 02:53:53;;;;;;;10.90;4.37;;;;;;;6.93;100.00;101432.75;2084839;28;20194;-64
2023/04/29 02:54:53;;;;;;;7.07;4.17;;;;;;;7.66;100.00;101530.69;2087110;28;20185;-64
2023/04/29 02:55:54;;;;;;;7.70;4.10;;;;;;;7.72;100.00;101538.19;2081306;28;20199;-64
2023/04/29 02:56:54;;;;;;;6.55;4.00;;;;;;;7.78;100.00;101531.09;2081344;28;20189;-64
2023/04/29 02:57:55;;;;;;;5.60;3.70;;;;;;;7.79;100.00;101529.91;2080585;28;20239;-64
2023/04/29 02:58:55;;;;;;;7.00;4.10;;;;;;;7.81;100.00;101524.00;2081312;28;20712;-64
2023/04/29 02:59:56;;;;;;;6.30;3.80;;;;;;;7.82;100.00;101522.81;2081141;28;20215;-64
2023/04/29 03:00:56;;;;;;;6.37;4.20;;;;;;;7.83;100.00;101516.13;2081378;28;20277;-64
2023/04/29 03:01:57;;;;;;;7.73;4.33;;;;;;;7.74;100.00;101510.97;2081317;28;20183;-64
2023/04/29 03:02:57;;;;;;;7.97;4.10;;;;;;;7.77;100.00;101520.44;2080457;28;20281;-63
2023/04/29 03:03:58;;;;;;;9.77;4.27;;;;;;;7.81;100.00;101519.28;2081424;28;20187;-64
2023/04/29 03:04:58;;;;;;;10.33;4.57;;;;;;;7.81;100.00;101524.00;2081243;28;20722;-64
2023/04/29 03:05:58;;;;;;;9.30;4.73;;;;;;;7.81;100.00;101516.53;2081298;28;20233;-63
2023/04/29 03:06:59;;;;;;;8.80;4.60;;;;;;;7.80;100.00;101516.91;2081160;28;20269;-63
2023/04/29 03:08:00;;;;;;;6.87;4.13;;;;;;;7.83;100.00;101513.34;2078987;28;20211;-63
2023/04/29 03:09:00;;;;;;;9.13;4.60;;;;;;;7.80;100.00;101512.16;2081034;28;20248;-63
2023/04/29 03:10:01;;;;;;;7.40;4.50;;;;;;;7.72;100.00;101510.59;2081382;28;20194;-63
2023/04/29 03:11:01;;;;;;;5.80;3.80;;;;;;;7.82;100.00;101517.31;2081084;28;20221;-63
2023/04/29 03:12:01;;;;;;;9.83;4.43;;;;;;;7.85;100.00;101522.06;2081151;28;20195;-63
2023/04/29 03:13:02;;;;;;;8.23;4.13;;;;;;;7.85;100.00;101524.81;2080310;28;20271;-63
2023/04/29 03:14:02;;;;;;;8.57;4.20;;;;;;;7.93;100.00;101524.41;2081199;28;20185;-63
2023/04/29 03:15:04;;;;;;;6.67;4.30;;;;;;;8.03;100.00;101531.13;2081234;28;20230;-63
2023/04/29 03:16:05;;;;;;;6.97;4.00;;;;;;;8.11;100.00;101527.97;2081174;28;20276;-63
2023/04/29 03:17:06;;;;;;;5.93;3.80;;;;;;;7.95;100.00;101486.16;2081051;28;20228;-63
2023/04/29 03:18:06;;;;;;;7.63;4.10;;;;;;;7.46;100.00;101399.81;2077909;28;20456;-63
2023/04/29 03:19:07;;;;;;;5.70;3.90;;;;;;;7.92;100.00;101467.66;2081134;28;20548;-63
2023/04/29 03:20:09;;;;;;;7.00;4.10;;;;;;;8.26;100.00;101521.31;2081008;28;20579;-63
2023/04/29 03:21:09;;;;;;;7.18;4.05;;;;;;;8.26;100.00;101520.53;2081083;28;20562;-63
2023/04/29 03:22:10;;;;;;;6.67;4.07;;;;;;;8.23;100.00;101527.63;2081402;28;20184;-63
2023/04/29 03:23:11;;;;;;;8.03;4.10;;;;;;;8.20;100.00;101533.94;2080609;28;20199;-63
2023/04/29 03:24:11;;;;;;;5.07;4.13;;;;;;;8.25;100.00;101535.53;2077199;28;20436;-63
2023/04/29 03:25:12;;;;;;;6.43;4.13;;;;;;;8.28;100.00;101538.28;2078896;28;20387;-63
2023/04/29 03:26:12;;;;;;;7.10;4.30;;;;;;;8.30;100.00;101535.91;2081034;28;20272;-63
2023/04/29 03:27:13;;;;;;;7.37;3.87;;;;;;;8.33;100.00;101542.59;2080773;28;20228;-63
2023/04/29 03:28:14;;;;;;;4.93;4.00;;;;;;;8.38;100.00;101542.22;2080346;28;20218;-63
2023/04/29 03:29:14;;;;;;;6.10;4.23;;;;;;;8.06;100.00;101498.03;2081128;28;20189;-63
2023/04/29 03:30:14;;;;;;;6.37;4.17;;;;;;;8.34;100.00;101542.22;2081150;28;20189;-63
2023/04/29 03:31:15;;;;;;;10.30;4.57;;;;;;;8.10;100.00;101503.53;2079917;28;20185;-63
2023/04/29 03:32:16;;;;;;;6.55;4.50;;;;;;;7.61;100.00;101434.50;2080088;28;20289;-63
2023/04/29 03:33:17;;;;;;;9.47;4.70;;;;;;;8.41;100.00;101552.47;2079295;28;20204;-63
2023/04/29 03:34:17;;;;;;;8.27;4.47;;;;;;;8.39;100.00;101550.13;2080753;28;20216;-63
2023/04/29 03:35:17;;;;;;;9.27;4.90;;;;;;;8.35;100.00;101546.56;2080575;28;20280;-63
2023/04/29 03:36:18;;;;;;;7.47;4.87;;;;;;;8.45;100.00;101556.03;2080830;28;20183;-63
2023/04/29 03:37:18;;;;;;;8.67;4.20;;;;;;;8.51;100.00;101546.94;2080323;28;20179;-63
2023/04/29 03:38:19;;;;;;;7.40;4.17;;;;;;;8.58;100.00;101551.66;2080176;28;20264;-63
2023/04/29 03:39:19;;;;;;;8.87;4.57;;;;;;;8.52;100.00;101554.06;2081118;28;20205;-63
2023/04/29 03:40:20;;;;;;;13.10;4.43;;;;;;;8.46;100.00;101541.81;2080971;28;20196;-63
2023/04/29 03:41:22;;;;;;;6.23;4.57;;;;;;;8.52;100.00;101547.75;2081017;28;20204;-63
2023/04/29 03:42:23;;;;;;;5.55;3.90;;;;;;;8.52;100.00;101539.44;2080982;28;20281;-63
2023/04/29 03:43:23;;;;;;;6.10;4.40;;;;;;;8.58;100.00;101552.47;2079168;28;20213;-63
2023/04/29 03:44:25;;;;;;;7.27;4.40;;;;;;;8.39;100.00;101508.69;2080205;28;20616;-63
2023/04/29 03:45:25;;;;;;;9.40;4.30;;;;;;;8.74;100.00;101550.06;2080958;28;20173;-63
2023/04/29 03:46:26;;;;;;;7.43;3.87;;;;;;;8.20;100.00;101466.88;2080964;28;20173;-63
2023/04/29 03:47:26;;;;;;;5.10;4.00;;;;;;;8.74;100.00;101554.81;2080139;28;20199;-63
2023/04/29 03:48:27;;;;;;;7.03;3.80;;;;;;;8.73;100.00;101554.03;2071971;28;20457;-63
2023/04/29 03:49:27;;;;;;;6.77;3.90;;;;;;;8.82;100.00;101551.63;2079541;28;20254;-63
2023/04/29 03:50:28;;;;;;;5.87;3.90;;;;;;;8.88;100.00;101552.03;2077465;28;20235;-63
2023/04/29 03:51:29;;;;;;;7.32;4.18;;;;;;;8.87;100.00;101545.69;2077408;28;20192;-63
2023/04/29 03:52:29;;;;;;;7.40;4.17;;;;;;;8.98;100.00;101546.44;2080849;28;20659;-63
2023/04/29 03:53:30;;;;;;;7.03;4.20;;;;;;;8.99;100.00;101550.81;2074619;28;20817;-63
2023/04/29 03:54:31;;;;;;;9.30;4.60;;;;;;;9.03;100.00;101546.03;2080869;28;20189;-63
2023/04/29 03:55:31;;;;;;;7.93;4.40;;;;;;;9.10;100.00;101540.50;2077294;28;20217;-63
2023/04/29 03:56:31;;;;;;;7.00;4.10;;;;;;;9.16;100.00;101540.88;2072835;28;20200;-63
2023/04/29 03:57:32;;;;;;;7.10;3.80;;;;;;;9.17;100.00;101536.94;2079022;28;20189;-63
2023/04/29 03:58:32;;;;;;;7.40;4.40;;;;;;;9.29;100.00;101548.34;2078549;28;20203;-63
2023/04/29 03:59:33;;;;;;;6.03;4.13;;;;;;;9.29;100.00;101548.34;2080058;28;20196;-63
2023/04/29 04:00:33;;;;;;;8.00;4.87;;;;;;;9.31;100.00;101540.44;2080838;28;20613;-63
2023/04/29 04:01:34;;;;;;;6.50;4.83;;;;;;;9.36;100.00;101547.50;2080884;28;20714;-63
2023/04/29 04:02:34;;;;;;;6.60;4.80;;;;;;;9.42;100.00;101543.94;2080656;28;20646;-63
2023/04/29 04:03:35;;;;;;;7.83;4.13;;;;;;;9.51;100.00;101549.81;2075377;28;20198;-63
2023/04/29 04:04:35;;;;;;;5.97;4.40;;;;;;;9.61;100.00;101554.53;2080939;28;20194;-63
2023/04/29 04:05:36;;;;;;;8.73;5.17;;;;;;;9.73;100.00;101556.81;2080667;28;20286;-64
2023/04/29 04:06:36;;;;;;;9.03;5.40;;;;;;;9.79;100.00;101554.41;2080847;28;20638;-63
2023/04/29 04:07:37;;;;;;;8.13;5.53;;;;;;;8.64;100.00;101385.09;2078535;28;20208;-63
2023/04/29 04:08:37;;;;;;;8.40;6.00;;;;;;;9.74;100.00;101569.47;2080054;28;20229;-63
2023/04/29 04:09:37;;;;;;;7.63;5.70;;;;;;;9.68;100.00;101564.78;2080827;28;20179;-63
2023/04/29 04:10:38;;;;;;;8.77;5.60;;;;;;;9.60;100.00;101536.34;2080722;28;20265;-63
2023/04/29 04:11:38;;;;;;;9.80;6.63;;;;;;;9.85;100.00;101574.94;2080689;28;20613;-63
2023/04/29 04:12:38;;;;;;;8.73;5.70;;;;;;;9.90;100.00;101569.00;2074400;28;20282;-63
2023/04/29 04:13:42;;;;;;;10.47;6.00;;;;;;;9.95;100.00;101568.56;2079338;28;20544;-63
2023/04/29 04:14:42;;;;;;;9.33;6.47;;;;;;;9.90;100.00;101566.22;2080931;28;20660;-63
2023/04/29 04:15:48;;;;;;;9.93;6.17;;;;;;;9.16;100.00;101442.13;2080782;28;20786;-63
2023/04/29 04:16:49;;;;;;;8.07;6.13;;;;;;;9.91;100.00;101576.09;2080546;28;20200;-63
2023/04/29 04:17:50;;;;;;;9.70;6.30;;;;;;;9.92;100.00;101581.22;2079647;28;20437;-63
2023/04/29 04:18:50;;;;;;;12.40;6.27;;;;;;;9.94;100.00;101580.84;2080713;28;21213;-63
2023/04/29 04:19:51;;;;;;;10.97;7.03;;;;;;;9.88;100.00;101554.75;2080793;28;20197;-63
2023/04/29 04:20:51;;;;;;;11.23;6.60;;;;;;;10.05;100.00;101570.50;2079799;28;20252;-63
2023/04/29 04:21:51;;;;;;;17.60;6.77;;;;;;;10.08;100.00;101576.00;2080162;28;20177;-63
2023/04/29 04:22:53;;;;;;;13.83;6.80;;;;;;;10.15;100.00;101569.66;2077667;28;20245;-63
2023/04/29 04:23:54;;;;;;;15.27;6.40;;;;;;;10.16;100.00;101552.63;2074865;28;20208;-63
2023/04/29 04:24:54;;;;;;;14.00;6.90;;;;;;;10.27;100.00;101564.41;2080705;28;20437;-63
2023/04/29 04:25:55;;;;;;;10.80;5.90;;;;;;;10.33;100.00;101571.09;2080714;28;20247;-63
2023/04/29 04:26:55;;;;;;;13.73;6.63;;;;;;;10.39;100.00;101568.66;2080746;28;20206;-63
2023/04/29 04:27:55;;;;;;;12.33;6.00;;;;;;;10.46;100.00;101571.38;2078266;28;20293;-63
2023/04/29 04:28:56;;;;;;;9.83;6.07;;;;;;;10.51;100.00;101576.47;2073396;28;20187;-63
2023/04/29 04:29:56;;;;;;;9.67;6.27;;;;;;;10.59;100.00;101578.78;2080834;28;20218;-63
2023/04/29 04:30:57;;;;;;;11.70;6.10;;;;;;;10.65;100.00;101579.13;2080810;28;20192;-63
2023/04/29 04:31:57;;;;;;;15.97;6.20;;;;;;;10.73;100.00;101567.56;2080540;28;20188;-63
2023/04/29 04:32:58;;;;;;;9.30;6.83;;;;;;;10.78;100.00;101566.31;2078758;28;20698;-63
2023/04/29 04:33:58;;;;;;;13.97;6.60;;;;;;;10.76;100.00;101561.19;2076899;28;20221;-63
2023/04/29 04:34:59;;;;;;;9.60;6.30;;;;;;;10.80;100.00;101559.19;2080618;28;20215;-63
2023/04/29 04:35:59;;;;;;;9.53;6.13;;;;;;;10.74;100.00;101558.06;2080579;28;20181;-63
2023/04/29 04:37:00;;;;;;;10.53;6.30;;;;;;;10.72;100.00;101554.88;2080376;28;20187;-63
2023/04/29 04:38:00;;;;;;;11.40;6.50;;;;;;;10.77;100.00;101559.97;2079710;28;20184;-63
2023/04/29 04:39:01;;;;;;;10.87;6.97;;;;;;;10.76;100.00;101557.66;2080547;28;20203;-63
2023/04/29 04:40:01;;;;;;;9.23;6.70;;;;;;;10.78;100.00;101552.47;2080604;28;20196;-63
2023/04/29 04:41:06;;;;;;;9.60;6.53;;;;;;;10.69;100.00;101530.78;2080503;28;20293;-63
2023/04/29 04:42:06;;;;;;;13.13;7.07;;;;;;;10.96;100.00;101564.94;2080342;28;20196;-63
2023/04/29 04:43:07;;;;;;;12.37;7.07;;;;;;;10.96;100.00;101564.19;2077831;28;20490;-63
2023/04/29 04:44:07;;;;;;;13.27;7.17;;;;;;;10.99;100.00;101561.34;2080322;28;20773;-63
2023/04/29 04:45:10;;;;;;;13.10;7.70;;;;;;;11.07;100.00;101562.06;2080451;28;20180;-63
2023/04/29 04:46:12;;;;;;;12.17;7.33;;;;;;;11.13;100.00;101557.66;2080549;28;20192;-63
2023/04/29 04:47:12;;;;;;;11.57;6.97;;;;;;;11.23;100.00;101562.28;2080372;28;20423;-63